Chesterville, Texas
Current Conditions -  °F | °C
As of 2:55 PM on Friday 19 Dec 2014 (Local Time) from KELA Reporting Station
Overcast Overcast  
Wind Chill: 59°   Ceiling: 2500
Heat Index: 59°   Visibility: 10mi
Dew Point: 55°   Wind: 14mph
Humidity: 88%   Direction: 40°NE
Pressure: 30.02"   Gusts: NA
Location:  29.4737°N, 96.1754°W
Report Text: KELA 192055Z AUTO 04012KT 10SM SCT009 BKN025 OVC039 15/13 A3002 RMK AO2 60007 T01490130
Loading
Personal Weather Stations






























Interactive Weather Map New forecast layout! Learn more

10-Day Weather Forecast

Advertisements
Track Severe Weather on mobile